Time;durP1;ratioP1;P1;durP2;ratioP2;P2;SDS_P1;SDS_P2;PMS_P1;PMS_P2;Temp;Humidity;BMP_temperature;BMP_pressure;BME280_temperature;BME280_humidity;BME280_pressure;Samples;Min_cycle;Max_cycle;Signal;HPM_P1;HPM_P2
2021/03/08 00:00:13;;;;;;;21.05;14.98;;;1.90;78.50;;;;;;5056624;28;20021;-73
2021/03/08 00:02:38;;;;;;;25.70;16.10;;;1.90;78.70;;;;;;5056831;28;20344;-73
2021/03/08 00:05:06;;;;;;;18.75;14.98;;;1.90;78.80;;;;;;5056579;28;20025;-74
2021/03/08 00:07:31;;;;;;;21.67;15.48;;;1.90;78.90;;;;;;5056493;28;20028;-74
2021/03/08 00:09:57;;;;;;;23.83;15.55;;;1.90;78.90;;;;;;5056815;28;20032;-73
2021/03/08 00:12:22;;;;;;;20.05;14.98;;;1.90;79.00;;;;;;5056485;28;20025;-74
2021/03/08 00:14:48;;;;;;;23.55;16.20;;;1.90;78.80;;;;;;5059539;28;20325;-73
2021/03/08 00:17:14;;;;;;;21.08;14.65;;;1.90;78.90;;;;;;5060702;28;20025;-73
2021/03/08 00:19:39;;;;;;;21.20;15.70;;;1.90;78.80;;;;;;5060844;28;20048;-74
2021/03/08 00:22:05;;;;;;;21.90;15.40;;;1.90;78.80;;;;;;5059465;28;20440;-74
2021/03/08 00:24:31;;;;;;;21.17;16.48;;;1.90;79.00;;;;;;5060420;28;20159;-74
2021/03/08 00:26:56;;;;;;;21.38;15.73;;;1.80;79.30;;;;;;5060754;28;20127;-73
2021/03/08 00:29:22;;;;;;;20.85;15.80;;;1.80;79.50;;;;;;5060364;28;20100;-74
2021/03/08 00:31:48;;;;;;;19.65;15.90;;;1.80;79.70;;;;;;5060633;28;20033;-73
2021/03/08 00:34:13;;;;;;;24.60;15.90;;;1.80;79.90;;;;;;5060258;28;20159;-74
2021/03/08 00:36:39;;;;;;;20.85;16.15;;;1.80;79.90;;;;;;5060357;28;20056;-74
2021/03/08 00:39:05;;;;;;;22.13;17.25;;;1.80;80.00;;;;;;5060240;28;20103;-73
2021/03/08 00:41:30;;;;;;;24.38;18.02;;;1.80;80.10;;;;;;5060210;28;20021;-74
2021/03/08 00:43:56;;;;;;;22.98;17.08;;;1.80;80.30;;;;;;5059037;28;20434;-73
2021/03/08 00:46:22;;;;;;;25.10;17.02;;;1.80;80.30;;;;;;5060583;28;20025;-74
2021/03/08 00:48:47;;;;;;;24.60;17.13;;;1.80;80.40;;;;;;5060004;28;20040;-74
2021/03/08 00:51:13;;;;;;;23.95;16.83;;;1.80;80.00;;;;;;5060213;28;20120;-74
2021/03/08 00:53:38;;;;;;;22.17;16.33;;;1.90;79.80;;;;;;5059945;28;20048;-73
2021/03/08 00:56:04;;;;;;;23.48;17.20;;;1.90;79.80;;;;;;5059958;28;20029;-73
2021/03/08 00:58:30;;;;;;;20.23;16.75;;;1.90;79.80;;;;;;5059933;28;20021;-74
2021/03/08 01:00:55;;;;;;;25.30;17.55;;;1.90;79.60;;;;;;5060073;28;20401;-74
2021/03/08 01:03:21;;;;;;;21.83;16.27;;;1.90;79.80;;;;;;5059717;28;20025;-73
2021/03/08 01:05:47;;;;;;;19.77;15.90;;;1.80;79.70;;;;;;5060102;28;20047;-73
2021/03/08 01:08:12;;;;;;;22.15;16.08;;;1.80;79.20;;;;;;5058659;28;20029;-74
2021/03/08 01:10:38;;;;;;;27.75;16.02;;;1.80;78.90;;;;;;5059584;28;20037;-74
2021/03/08 01:13:04;;;;;;;21.10;15.68;;;1.80;78.50;;;;;;5059548;28;20401;-74
2021/03/08 01:15:29;;;;;;;20.35;15.68;;;1.80;78.70;;;;;;5059499;28;20030;-74
2021/03/08 01:17:55;;;;;;;21.60;15.90;;;1.80;78.40;;;;;;5059679;28;20455;-74
2021/03/08 01:20:21;;;;;;;22.25;16.30;;;1.80;79.60;;;;;;5059372;28;20088;-74
2021/03/08 01:22:47;;;;;;;21.10;15.38;;;1.80;79.80;;;;;;5058262;28;20021;-73
2021/03/08 01:25:15;;;;;;;21.38;14.90;;;1.80;79.80;;;;;;5059135;28;20024;-74
2021/03/08 01:27:41;;;;;;;17.83;13.95;;;1.70;79.80;;;;;;5059527;28;20099;-73
2021/03/08 01:30:10;;;;;;;19.45;14.98;;;1.60;79.30;;;;;;5059241;28;20024;-74
2021/03/08 01:32:35;;;;;;;19.88;15.52;;;1.60;79.20;;;;;;5058208;28;20417;-74
2021/03/08 01:35:01;;;;;;;20.42;16.38;;;1.60;79.80;;;;;;5059140;28;20022;-74
2021/03/08 01:37:27;;;;;;;20.65;16.55;;;1.70;80.10;;;;;;5059318;28;20017;-74
2021/03/08 01:39:52;;;;;;;22.67;16.77;;;1.60;80.10;;;;;;5059146;28;20086;-74
2021/03/08 01:42:18;;;;;;;22.45;16.42;;;1.60;80.50;;;;;;5059314;28;20025;-74
2021/03/08 01:44:46;;;;;;;19.13;16.15;;;1.60;80.70;;;;;;5059050;28;20029;-74
2021/03/08 01:47:11;;;;;;;23.73;16.63;;;1.60;81.10;;;;;;5059066;28;20033;-74
2021/03/08 01:49:37;;;;;;;24.65;17.08;;;1.50;80.90;;;;;;5059115;28;20037;-74
2021/03/08 01:52:03;;;;;;;24.88;16.58;;;1.50;80.90;;;;;;5057796;28;20017;-74
2021/03/08 01:54:28;;;;;;;22.95;16.42;;;1.60;81.00;;;;;;5059030;28;20029;-74
2021/03/08 01:56:54;;;;;;;23.27;16.52;;;1.60;81.20;;;;;;5058758;28;20037;-74
2021/03/08 01:59:21;;;;;;;19.90;15.73;;;1.60;81.60;;;;;;5058657;28;20029;-73
2021/03/08 02:01:47;;;;;;;21.40;15.27;;;1.50;81.90;;;;;;5058910;28;20032;-74
2021/03/08 02:04:12;;;;;;;23.73;17.38;;;1.50;82.30;;;;;;5058606;28;20033;-74
2021/03/08 02:06:38;;;;;;;22.90;16.25;;;1.50;82.50;;;;;;5058874;28;20025;-74
2021/03/08 02:09:04;;;;;;;24.33;18.20;;;1.60;82.90;;;;;;5058754;28;20051;-74
2021/03/08 02:11:34;;;;;;;24.58;16.65;;;1.50;82.80;;;;;;5058407;28;20024;-74
2021/03/08 02:14:13;;;;;;;23.45;18.08;;;1.50;82.80;;;;;;5057298;28;20055;-73
2021/03/08 02:17:01;;;;;;;23.05;18.02;;;1.60;82.70;;;;;;5058430;28;20025;-74
2021/03/08 02:19:39;;;;;;;25.80;18.02;;;1.50;82.60;;;;;;5058246;28;20057;-74
2021/03/08 02:22:42;;;;;;;24.38;17.55;;;1.50;83.00;;;;;;5058368;28;20100;-74
2021/03/08 02:25:17;;;;;;;25.33;18.42;;;1.50;83.20;;;;;;5058366;28;20032;-74
2021/03/08 02:28:01;;;;;;;29.35;18.95;;;1.50;83.60;;;;;;5058502;28;20040;-74
2021/03/08 02:30:36;;;;;;;29.60;17.77;;;1.50;83.60;;;;;;5058427;28;20036;-73
2021/03/08 02:33:05;;;;;;;23.25;17.25;;;1.50;83.10;;;;;;5058029;28;20022;-74
2021/03/08 02:35:34;;;;;;;21.15;16.45;;;1.60;82.60;;;;;;5058012;28;20033;-74
2021/03/08 02:38:04;;;;;;;24.33;16.85;;;1.60;82.30;;;;;;5056491;28;20013;-74
2021/03/08 02:40:38;;;;;;;23.13;16.63;;;1.60;82.10;;;;;;5057963;28;20052;-74
2021/03/08 02:43:22;;;;;;;21.17;16.60;;;1.60;81.50;;;;;;5057903;28;20052;-74
2021/03/08 02:45:51;;;;;;;21.52;16.33;;;1.60;81.10;;;;;;5058240;28;20033;-74
2021/03/08 02:48:19;;;;;;;21.02;15.45;;;1.60;80.60;;;;;;5056737;28;20040;-74
2021/03/08 02:50:46;;;;;;;22.75;15.70;;;1.60;80.40;;;;;;5057720;28;20032;-73
2021/03/08 02:53:15;;;;;;;21.13;15.60;;;1.60;80.40;;;;;;5057575;28;20435;-74
2021/03/08 02:55:48;;;;;;;25.42;16.30;;;1.60;80.30;;;;;;5057687;28;20027;-73
2021/03/08 02:58:17;;;;;;;23.88;15.90;;;1.60;80.00;;;;;;5057733;28;20021;-74
2021/03/08 03:00:44;;;;;;;23.45;16.73;;;1.70;80.30;;;;;;5057813;28;20083;-74
2021/03/08 03:03:10;;;;;;;21.52;16.85;;;1.80;79.90;;;;;;5057459;28;20420;-72
2021/03/08 03:05:39;;;;;;;24.35;17.08;;;1.80;79.00;;;;;;5057458;28;20025;-72
2021/03/08 03:08:07;;;;;;;18.45;14.77;;;1.90;78.90;;;;;;5057404;28;20021;-71
2021/03/08 03:10:34;;;;;;;21.55;16.13;;;1.90;78.30;;;;;;5057301;28;20475;-73
2021/03/08 03:13:03;;;;;;;21.13;16.35;;;1.90;78.00;;;;;;5057275;28;20021;-73
2021/03/08 03:15:31;;;;;;;18.75;15.50;;;1.80;78.30;;;;;;5057696;28;20032;-74
2021/03/08 03:17:59;;;;;;;22.77;16.90;;;1.80;78.30;;;;;;5057278;28;20409;-73
2021/03/08 03:20:26;;;;;;;19.45;15.48;;;1.70;79.10;;;;;;5056998;28;20064;-74
2021/03/08 03:22:52;;;;;;;22.10;15.43;;;1.60;80.00;;;;;;5057378;28;20021;-73
2021/03/08 03:25:20;;;;;;;24.55;16.33;;;1.60;79.50;;;;;;5057321;28;20047;-74
2021/03/08 03:27:47;;;;;;;22.88;17.38;;;1.50;79.60;;;;;;5057366;28;20309;-73
2021/03/08 03:30:15;;;;;;;22.95;16.42;;;1.50;80.00;;;;;;5057287;28;20151;-74
2021/03/08 03:32:43;;;;;;;23.65;16.88;;;1.40;80.20;;;;;;5057185;28;20074;-74
2021/03/08 03:35:11;;;;;;;23.92;16.52;;;1.40;80.50;;;;;;5057206;28;20027;-74
2021/03/08 03:37:38;;;;;;;23.70;16.63;;;1.40;80.70;;;;;;5056938;28;20104;-72
2021/03/08 03:40:06;;;;;;;25.13;17.10;;;1.30;80.70;;;;;;5056909;28;20432;-72
2021/03/08 03:42:32;;;;;;;21.88;16.20;;;1.30;81.10;;;;;;5057098;28;20051;-72
2021/03/08 03:44:57;;;;;;;27.58;17.00;;;1.30;81.60;;;;;;5056666;28;20064;-72
2021/03/08 03:47:24;;;;;;;24.52;18.67;;;1.30;82.00;;;;;;5056726;28;20325;-72
2021/03/08 03:49:49;;;;;;;26.73;18.25;;;1.30;82.70;;;;;;5056688;28;20060;-72
2021/03/08 03:52:16;;;;;;;24.35;18.05;;;1.20;83.10;;;;;;5056700;28;20052;-72
2021/03/08 03:54:41;;;;;;;22.95;18.15;;;1.20;82.80;;;;;;5056679;28;20040;-71
2021/03/08 03:57:11;;;;;;;24.67;18.75;;;1.20;82.90;;;;;;5057191;28;20025;-72
2021/03/08 03:59:55;;;;;;;26.67;20.33;;;1.20;83.20;;;;;;5056689;28;20036;-72
2021/03/08 04:02:41;;;;;;;29.23;19.88;;;1.20;83.00;;;;;;5056600;28;20428;-72
2021/03/08 04:05:10;;;;;;;22.58;17.42;;;1.20;83.00;;;;;;5055881;28;20355;-74
2021/03/08 04:07:40;;;;;;;28.67;18.40;;;1.20;82.40;;;;;;5056911;28;20060;-74
2021/03/08 04:10:09;;;;;;;23.98;18.05;;;1.10;82.40;;;;;;5055407;28;20033;-74
2021/03/08 04:12:36;;;;;;;25.63;18.60;;;1.10;82.70;;;;;;5056420;28;20025;-74
2021/03/08 04:15:06;;;;;;;26.75;19.45;;;1.20;82.70;;;;;;5055474;28;20040;-74
2021/03/08 04:17:39;;;;;;;22.98;17.98;;;1.20;83.20;;;;;;5056769;28;20048;-74
2021/03/08 04:20:10;;;;;;;24.15;18.80;;;1.10;83.70;;;;;;5056330;28;20061;-74
2021/03/08 04:22:36;;;;;;;25.10;17.80;;;1.10;83.70;;;;;;5056703;28;20029;-74
2021/03/08 04:25:03;;;;;;;25.83;18.75;;;1.10;83.10;;;;;;5056654;28;20036;-74
2021/03/08 04:27:31;;;;;;;26.25;18.15;;;1.00;83.20;;;;;;5056708;28;20032;-74
2021/03/08 04:29:58;;;;;;;25.05;18.08;;;1.00;82.80;;;;;;5056584;28;20097;-74
2021/03/08 04:32:24;;;;;;;26.23;18.95;;;1.00;83.30;;;;;;5056332;28;20100;-74
2021/03/08 04:34:50;;;;;;;23.42;18.77;;;1.00;83.60;;;;;;5056382;28;20044;-74
2021/03/08 04:37:17;;;;;;;24.77;18.42;;;0.90;83.60;;;;;;5056273;28;20544;-74
2021/03/08 04:39:44;;;;;;;26.05;19.02;;;0.90;83.80;;;;;;5056253;28;20032;-74
2021/03/08 04:42:13;;;;;;;23.77;18.02;;;0.90;84.40;;;;;;5056271;28;20025;-74
2021/03/08 04:44:40;;;;;;;23.67;17.38;;;0.90;84.30;;;;;;5056246;28;20409;-74
2021/03/08 04:47:08;;;;;;;26.63;19.08;;;0.90;84.30;;;;;;5056501;28;20033;-74
2021/03/08 04:49:34;;;;;;;26.88;18.23;;;0.90;84.20;;;;;;5056019;28;20471;-74
2021/03/08 04:52:01;;;;;;;27.52;18.42;;;0.90;84.60;;;;;;5056142;28;20032;-74
2021/03/08 04:54:27;;;;;;;22.13;16.58;;;0.90;83.70;;;;;;5056083;28;20064;-74
2021/03/08 04:56:55;;;;;;;22.52;16.80;;;0.90;82.80;;;;;;5056454;28;20042;-73
2021/03/08 04:59:22;;;;;;;22.10;16.40;;;0.90;82.20;;;;;;5056965;28;20079;-74
2021/03/08 05:01:49;;;;;;;24.27;18.27;;;1.00;82.90;;;;;;5060073;28;20393;-74
2021/03/08 05:04:18;;;;;;;23.58;17.20;;;0.90;83.30;;;;;;5060027;28;20027;-74
2021/03/08 05:06:45;;;;;;;24.13;18.35;;;0.90;82.90;;;;;;5060071;28;20117;-74
2021/03/08 05:09:14;;;;;;;21.70;16.77;;;0.90;82.70;;;;;;5059661;28;20337;-74
2021/03/08 05:11:43;;;;;;;26.00;17.98;;;0.80;83.30;;;;;;5059644;28;20083;-74
2021/03/08 05:14:16;;;;;;;27.75;18.17;;;0.80;83.20;;;;;;5059554;28;20028;-74
2021/03/08 05:16:47;;;;;;;25.27;17.27;;;0.80;83.40;;;;;;5059913;28;20369;-74
2021/03/08 05:19:14;;;;;;;25.80;17.95;;;0.80;83.70;;;;;;5059339;28;20025;-74
2021/03/08 05:21:40;;;;;;;22.67;17.48;;;0.80;83.70;;;;;;5059766;28;20528;-74
2021/03/08 05:24:08;;;;;;;20.58;16.73;;;0.80;83.90;;;;;;5059390;28;20317;-74
2021/03/08 05:26:35;;;;;;;24.60;16.95;;;0.80;84.20;;;;;;5059671;28;20029;-73
2021/03/08 05:29:02;;;;;;;23.55;17.42;;;0.70;84.30;;;;;;5059357;28;20322;-74
2021/03/08 05:31:31;;;;;;;25.83;17.67;;;0.70;84.30;;;;;;5059202;28;20147;-74
2021/03/08 05:34:01;;;;;;;24.88;17.98;;;0.70;84.30;;;;;;5059166;28;20025;-74
2021/03/08 05:36:28;;;;;;;21.80;17.30;;;0.70;84.00;;;;;;5059405;28;20023;-74
2021/03/08 05:38:54;;;;;;;29.25;19.08;;;0.70;84.30;;;;;;5059141;28;20075;-74
2021/03/08 05:41:31;;;;;;;25.63;18.00;;;0.70;84.30;;;;;;5059142;28;20107;-74
2021/03/08 05:44:03;;;;;;;24.05;18.05;;;0.80;84.10;;;;;;5059282;28;20029;-74
2021/03/08 05:46:40;;;;;;;21.45;17.38;;;0.80;83.80;;;;;;5059392;28;20056;-74
2021/03/08 05:49:18;;;;;;;22.65;16.15;;;0.80;83.20;;;;;;5058942;28;20060;-74
2021/03/08 05:51:50;;;;;;;22.85;17.25;;;0.80;82.90;;;;;;5059178;28;20104;-74
2021/03/08 05:54:19;;;;;;;22.23;16.17;;;0.90;82.60;;;;;;5059096;28;20036;-74
2021/03/08 05:57:22;;;;;;;23.23;17.48;;;0.90;82.80;;;;;;5058842;28;20032;-74
2021/03/08 06:00:08;;;;;;;30.63;19.40;;;0.90;82.80;;;;;;5058787;28;20029;-74
2021/03/08 06:02:55;;;;;;;30.67;18.23;;;1.00;83.50;;;;;;5058767;28;20017;-73
2021/03/08 06:05:48;;;;;;;21.70;15.27;;;1.00;83.50;;;;;;5058735;28;20029;-74
2021/03/08 06:08:50;;;;;;;42.00;20.40;;;1.10;83.10;;;;;;5057583;28;20116;-73
2021/03/08 06:11:19;;;;;;;35.05;20.88;;;1.20;82.70;;;;;;5058464;28;20412;-74
2021/03/08 06:13:54;;;;;;;26.77;17.35;;;1.30;82.70;;;;;;5057424;28;20036;-74
2021/03/08 06:16:34;;;;;;;21.20;16.33;;;1.40;82.40;;;;;;5059010;28;20017;-74
2021/03/08 06:19:04;;;;;;;22.20;15.90;;;1.50;82.30;;;;;;5057397;28;20079;-74
2021/03/08 06:21:34;;;;;;;24.85;17.10;;;1.70;82.10;;;;;;5058243;28;20076;-74
2021/03/08 06:24:02;;;;;;;20.63;15.68;;;1.80;81.80;;;;;;5058252;28;20029;-74
2021/03/08 06:26:30;;;;;;;21.63;15.35;;;1.90;81.80;;;;;;5058769;28;20294;-72
2021/03/08 06:28:57;;;;;;;18.52;14.50;;;2.00;81.00;;;;;;5057176;28;20447;-72
2021/03/08 06:31:27;;;;;;;21.70;15.48;;;2.20;81.00;;;;;;5058106;28;20051;-72
2021/03/08 06:33:53;;;;;;;21.00;16.02;;;2.30;80.70;;;;;;5058101;28;20443;-72
2021/03/08 06:36:21;;;;;;;21.75;16.38;;;2.40;80.90;;;;;;5058150;28;20117;-72
2021/03/08 06:38:47;;;;;;;20.48;15.07;;;2.50;81.00;;;;;;5058028;28;20049;-73
2021/03/08 06:41:13;;;;;;;20.75;15.20;;;2.50;79.80;;;;;;5058077;28;20025;-74
2021/03/08 06:43:39;;;;;;;18.90;14.65;;;2.60;79.30;;;;;;5057843;28;20033;-74
2021/03/08 06:46:05;;;;;;;18.63;15.20;;;2.70;79.90;;;;;;5058389;28;20310;-74
2021/03/08 06:48:31;;;;;;;25.83;16.00;;;2.70;80.30;;;;;;5057862;28;20043;-74
2021/03/08 06:51:07;;;;;;;20.15;15.60;;;2.80;78.60;;;;;;5057733;28;20461;-73
2021/03/08 06:53:34;;;;;;;19.05;15.60;;;2.90;78.30;;;;;;5057978;28;20052;-74
2021/03/08 06:56:18;;;;;;;19.90;14.75;;;2.90;78.00;;;;;;5057908;28;20342;-74
2021/03/08 06:58:45;;;;;;;21.20;15.52;;;3.00;78.60;;;;;;5057695;28;20484;-74
2021/03/08 07:01:13;;;;;;;19.30;15.07;;;3.00;78.90;;;;;;5057845;28;20048;-73
2021/03/08 07:03:39;;;;;;;18.70;15.13;;;3.10;78.00;;;;;;5057331;28;20025;-74
2021/03/08 07:06:18;;;;;;;21.08;16.08;;;3.20;78.40;;;;;;5057576;28;20051;-74
2021/03/08 07:08:44;;;;;;;23.75;15.80;;;3.40;78.50;;;;;;5057497;28;20036;-74
2021/03/08 07:11:18;;;;;;;19.20;14.82;;;3.60;77.90;;;;;;5057469;28;20027;-74
2021/03/08 07:13:46;;;;;;;18.38;14.95;;;3.60;77.60;;;;;;5057298;28;20052;-74
2021/03/08 07:16:12;;;;;;;20.40;15.57;;;3.70;76.40;;;;;;5057789;28;20025;-73
2021/03/08 07:18:38;;;;;;;18.35;15.02;;;3.70;77.00;;;;;;5057353;28;20105;-74
2021/03/08 07:21:36;;;;;;;19.83;15.25;;;3.60;75.60;;;;;;5057108;28;20402;-74
2021/03/08 07:24:15;;;;;;;23.13;16.05;;;3.60;76.60;;;;;;5044587;28;20033;-74
2021/03/08 07:26:55;;;;;;;21.58;14.85;;;3.70;78.20;;;;;;5057208;28;20481;-74
2021/03/08 07:29:23;;;;;;;20.45;14.85;;;3.80;78.70;;;;;;5057097;28;20056;-74
2021/03/08 07:31:54;;;;;;;21.02;16.42;;;4.00;78.00;;;;;;5057211;28;20025;-74
2021/03/08 07:34:20;;;;;;;19.17;15.05;;;4.10;77.50;;;;;;5056964;28;20025;-74
2021/03/08 07:37:00;;;;;;;24.75;15.75;;;4.20;75.60;;;;;;5057252;28;20069;-74
2021/03/08 07:39:26;;;;;;;20.02;15.27;;;4.30;74.60;;;;;;5056932;28;20103;-74
2021/03/08 07:41:57;;;;;;;18.30;14.95;;;4.30;75.10;;;;;;5056924;28;20071;-73
2021/03/08 07:44:25;;;;;;;19.77;14.60;;;4.40;75.30;;;;;;5056836;28;20037;-74
2021/03/08 07:46:52;;;;;;;19.25;14.75;;;4.50;74.30;;;;;;5057109;28;20029;-74
2021/03/08 07:49:35;;;;;;;20.48;14.68;;;4.50;73.10;;;;;;5056669;28;20413;-74
2021/03/08 07:52:03;;;;;;;18.60;14.20;;;4.50;74.10;;;;;;5056767;28;20021;-74
2021/03/08 07:54:28;;;;;;;21.73;14.35;;;4.50;74.00;;;;;;5056829;28;20044;-73
2021/03/08 07:56:58;;;;;;;19.40;15.00;;;4.60;75.30;;;;;;5056721;28;20021;-74
2021/03/08 07:59:25;;;;;;;18.70;14.43;;;4.70;74.20;;;;;;5056955;28;20028;-74
2021/03/08 08:01:51;;;;;;;16.80;13.88;;;4.70;75.00;;;;;;5056590;28;20455;-74
2021/03/08 08:04:17;;;;;;;18.92;13.82;;;4.60;74.00;;;;;;5056607;28;20025;-73
2021/03/08 08:06:43;;;;;;;19.33;14.52;;;4.60;74.40;;;;;;5057193;28;20017;-74
2021/03/08 08:09:11;;;;;;;17.35;13.38;;;4.60;73.90;;;;;;5056625;28;20039;-73
2021/03/08 08:11:37;;;;;;;18.30;13.95;;;4.70;74.20;;;;;;5056544;28;20057;-74
2021/03/08 08:14:05;;;;;;;17.63;13.73;;;4.70;72.80;;;;;;5056427;28;20356;-74
2021/03/08 08:16:35;;;;;;;18.60;14.27;;;4.80;72.50;;;;;;5056718;28;20079;-73
2021/03/08 08:19:07;;;;;;;18.08;15.00;;;4.90;70.80;;;;;;5056529;28;20100;-73
2021/03/08 08:21:38;;;;;;;17.65;13.90;;;5.20;71.90;;;;;;5056494;28;20068;-74
2021/03/08 08:24:06;;;;;;;17.73;14.18;;;5.50;70.00;;;;;;5056424;28;20052;-73
2021/03/08 08:26:32;;;;;;;17.65;14.15;;;6.30;68.20;;;;;;5056527;28;20360;-74
2021/03/08 08:28:59;;;;;;;17.90;13.18;;;7.10;65.60;;;;;;5056379;28;20033;-74
2021/03/08 08:31:25;;;;;;;17.98;13.70;;;8.00;63.90;;;;;;5056303;28;20100;-74
2021/03/08 08:33:51;;;;;;;18.38;13.48;;;8.80;62.00;;;;;;5056613;28;20383;-74
2021/03/08 08:36:26;;;;;;;20.58;13.70;;;9.50;60.90;;;;;;5060280;28;20013;-74
2021/03/08 08:38:54;;;;;;;15.93;13.20;;;10.20;57.70;;;;;;5060392;28;20436;-74
2021/03/08 08:41:26;;;;;;;16.65;14.02;;;10.50;55.90;;;;;;5060209;28;20413;-74
2021/03/08 08:44:07;;;;;;;16.40;13.60;;;10.90;55.80;;;;;;5060417;28;20021;-72
2021/03/08 08:46:33;;;;;;;16.95;13.70;;;11.30;55.90;;;;;;5060575;28;20083;-74
2021/03/08 08:49:06;;;;;;;14.35;12.60;;;11.60;54.50;;;;;;5059045;28;20025;-74
2021/03/08 08:51:54;;;;;;;14.45;12.93;;;11.70;53.20;;;;;;5060055;28;20024;-74
2021/03/08 08:54:29;;;;;;;14.85;12.77;;;11.70;52.60;;;;;;5059942;28;20021;-72
2021/03/08 08:57:08;;;;;;;18.88;13.93;;;12.10;52.80;;;;;;5060066;28;20052;-74
2021/03/08 08:59:36;;;;;;;15.38;13.57;;;12.00;52.60;;;;;;5060259;28;20321;-72
2021/03/08 09:02:24;;;;;;;16.17;12.48;;;12.00;52.20;;;;;;5059831;28;20039;-73
2021/03/08 09:04:49;;;;;;;17.02;13.65;;;12.10;51.50;;;;;;5055218;28;20032;-74
2021/03/08 09:07:19;;;;;;;16.73;13.63;;;12.10;51.30;;;;;;5059822;28;20021;-74
2021/03/08 09:09:51;;;;;;;14.60;12.65;;;12.30;52.30;;;;;;5059936;28;20033;-74
2021/03/08 09:12:44;;;;;;;15.93;13.68;;;12.50;51.30;;;;;;5060059;28;20021;-74
2021/03/08 09:15:13;;;;;;;16.27;13.73;;;12.60;51.20;;;;;;5059544;28;20040;-72
2021/03/08 09:17:51;;;;;;;18.60;13.45;;;12.80;50.70;;;;;;5059582;28;20074;-72
2021/03/08 09:20:27;;;;;;;14.57;13.07;;;13.00;49.50;;;;;;5058309;28;20053;-72
2021/03/08 09:22:57;;;;;;;16.58;14.30;;;13.20;49.80;;;;;;5058424;28;20051;-72
2021/03/08 09:25:27;;;;;;;20.15;13.60;;;13.50;49.90;;;;;;5059482;28;20036;-72
2021/03/08 09:27:59;;;;;;;17.05;13.13;;;13.60;49.10;;;;;;5059693;28;20349;-73
2021/03/08 09:30:43;;;;;;;14.98;13.38;;;13.60;47.90;;;;;;5059554;28;20409;-74
2021/03/08 09:33:15;;;;;;;16.58;14.07;;;13.60;48.40;;;;;;5059406;28;20095;-74
2021/03/08 09:35:47;;;;;;;15.55;13.32;;;13.50;48.80;;;;;;5059398;28;20021;-74
2021/03/08 09:38:14;;;;;;;15.45;13.60;;;13.60;49.70;;;;;;5059346;28;20028;-74
2021/03/08 09:40:43;;;;;;;17.02;14.38;;;13.30;49.90;;;;;;5059174;28;20056;-74
2021/03/08 09:43:32;;;;;;;18.00;13.13;;;13.40;50.40;;;;;;5059295;28;20138;-74
2021/03/08 09:46:00;;;;;;;16.38;14.30;;;13.30;50.90;;;;;;5059181;28;20029;-72
2021/03/08 09:48:28;;;;;;;15.98;14.27;;;13.60;49.40;;;;;;5059183;28;20071;-74
2021/03/08 09:51:01;;;;;;;17.95;13.77;;;13.70;48.60;;;;;;5059105;28;20029;-73
2021/03/08 09:53:31;;;;;;;15.52;13.88;;;13.80;49.20;;;;;;5059014;28;20303;-73
2021/03/08 09:56:06;;;;;;;15.80;14.07;;;13.80;48.80;;;;;;5058949;28;20024;-73
2021/03/08 09:58:32;;;;;;;15.57;13.98;;;14.10;47.40;;;;;;5058939;28;20025;-72
2021/03/08 10:00:59;;;;;;;15.23;13.43;;;14.10;48.90;;;;;;5058764;28;20033;-74
2021/03/08 10:03:26;;;;;;;14.93;13.27;;;14.20;47.60;;;;;;5058978;28;20294;-74
2021/03/08 10:05:54;;;;;;;14.93;13.40;;;14.00;47.40;;;;;;5058782;28;20036;-73
2021/03/08 10:08:28;;;;;;;15.88;14.27;;;14.00;49.90;;;;;;5057593;28;20025;-74
2021/03/08 10:10:54;;;;;;;15.52;13.50;;;14.00;49.20;;;;;;5058282;28;20108;-73
2021/03/08 10:13:21;;;;;;;15.82;13.18;;;14.20;51.90;;;;;;5053255;28;20021;-71
2021/03/08 10:15:55;;;;;;;17.75;13.63;;;14.10;49.20;;;;;;5042708;28;20448;-74
2021/03/08 10:18:29;;;;;;;16.63;14.50;;;14.30;48.50;;;;;;5038798;28;20021;-74
2021/03/08 10:20:57;;;;;;;15.88;14.25;;;14.20;49.10;;;;;;5038377;28;20045;-74
2021/03/08 10:23:31;;;;;;;19.40;15.10;;;14.10;48.20;;;;;;5038625;28;20348;-72
2021/03/08 10:26:13;;;;;;;18.48;14.18;;;14.40;48.80;;;;;;5038608;28;20125;-72
2021/03/08 10:28:39;;;;;;;17.27;14.88;;;14.40;47.50;;;;;;5038436;28;20032;-73
2021/03/08 10:31:06;;;;;;;16.58;14.38;;;14.30;48.50;;;;;;5038471;28;20029;-72
2021/03/08 10:33:34;;;;;;;16.23;14.52;;;14.70;47.50;;;;;;5038395;28;20090;-74
2021/03/08 10:36:00;;;;;;;15.13;13.43;;;14.60;47.00;;;;;;5038240;28;20029;-72
2021/03/08 10:38:32;;;;;;;19.85;14.32;;;14.80;50.00;;;;;;5038122;28;20030;-74
2021/03/08 10:41:00;;;;;;;17.05;14.27;;;14.90;48.60;;;;;;5038284;28;20043;-72
2021/03/08 10:43:27;;;;;;;18.17;14.80;;;15.20;46.60;;;;;;5037974;28;20109;-72
2021/03/08 10:45:55;;;;;;;18.65;14.68;;;15.20;47.40;;;;;;5038382;28;20040;-72
2021/03/08 10:48:21;;;;;;;16.15;14.43;;;15.30;47.50;;;;;;5037932;28;20061;-74
2021/03/08 10:50:52;;;;;;;16.90;14.60;;;15.20;48.20;;;;;;5037840;28;20033;-74
2021/03/08 10:53:19;;;;;;;17.90;15.00;;;14.80;47.40;;;;;;5038012;28;20048;-74
2021/03/08 10:55:46;;;;;;;16.83;14.30;;;14.70;48.20;;;;;;5038381;28;20378;-72
2021/03/08 10:58:13;;;;;;;17.05;15.20;;;14.60;48.60;;;;;;5037262;28;20022;-74
2021/03/08 11:00:42;;;;;;;18.02;14.80;;;14.50;49.00;;;;;;5037976;28;20148;-74
2021/03/08 11:03:38;;;;;;;16.35;14.75;;;14.20;47.90;;;;;;5037601;28;20329;-74
2021/03/08 11:06:08;;;;;;;16.98;14.45;;;14.50;49.90;;;;;;5037722;28;20389;-74
2021/03/08 11:08:39;;;;;;;15.93;14.05;;;14.40;48.30;;;;;;5037668;28;20021;-74
2021/03/08 11:11:18;;;;;;;19.83;16.23;;;14.20;49.40;;;;;;5036356;28;20025;-74
2021/03/08 11:13:46;;;;;;;16.73;14.93;;;14.30;50.00;;;;;;5037493;28;20022;-74
2021/03/08 11:16:13;;;;;;;18.30;15.68;;;14.30;48.60;;;;;;5037972;28;20017;-74
2021/03/08 11:18:39;;;;;;;16.73;14.93;;;14.50;49.10;;;;;;5037399;28;20503;-74
2021/03/08 11:21:24;;;;;;;17.17;15.43;;;14.90;49.50;;;;;;5037172;28;20056;-72
2021/03/08 11:23:52;;;;;;;17.20;15.40;;;15.30;48.50;;;;;;5037253;28;20029;-72
2021/03/08 11:26:19;;;;;;;19.05;16.88;;;15.20;49.60;;;;;;5037515;28;20384;-74
2021/03/08 11:28:45;;;;;;;16.80;15.00;;;15.10;51.00;;;;;;5037196;28;20029;-74
2021/03/08 11:31:24;;;;;;;16.25;14.55;;;15.30;48.50;;;;;;5037147;28;20105;-73
2021/03/08 11:33:55;;;;;;;17.13;14.88;;;15.40;47.40;;;;;;5037103;28;20473;-74
2021/03/08 11:36:32;;;;;;;17.63;15.82;;;15.20;48.70;;;;;;5036078;28;20099;-72
2021/03/08 11:39:05;;;;;;;23.20;17.27;;;15.10;50.20;;;;;;5037111;28;20499;-74
2021/03/08 11:41:33;;;;;;;18.35;15.73;;;14.80;50.00;;;;;;5037024;28;20033;-74
2021/03/08 11:43:59;;;;;;;18.63;16.25;;;14.70;50.30;;;;;;5036843;28;20022;-74
2021/03/08 11:46:25;;;;;;;16.75;15.05;;;14.50;49.90;;;;;;5035964;28;20033;-72
2021/03/08 11:48:59;;;;;;;16.55;14.80;;;14.80;50.80;;;;;;5035896;28;20467;-72
2021/03/08 11:51:25;;;;;;;16.95;14.75;;;15.20;49.30;;;;;;5035791;28;20029;-72
2021/03/08 11:53:50;;;;;;;17.30;15.48;;;15.10;50.00;;;;;;5036784;28;20021;-72
2021/03/08 11:56:16;;;;;;;17.42;15.43;;;15.20;49.80;;;;;;5036858;28;20029;-72
2021/03/08 11:58:42;;;;;;;18.15;16.27;;;15.10;49.00;;;;;;5036892;28;20021;-72
2021/03/08 12:01:07;;;;;;;17.30;15.50;;;15.00;48.50;;;;;;5036753;28;20072;-72
2021/03/08 12:03:34;;;;;;;19.35;15.93;;;14.90;49.90;;;;;;5036971;28;20045;-72
2021/03/08 12:06:00;;;;;;;17.15;15.32;;;14.70;49.90;;;;;;5036706;28;20040;-72
2021/03/08 12:08:26;;;;;;;17.27;15.48;;;14.50;51.10;;;;;;5036534;28;20022;-72
2021/03/08 12:10:51;;;;;;;19.45;16.50;;;14.40;52.40;;;;;;5036861;28;20429;-73
2021/03/08 12:13:17;;;;;;;18.98;15.20;;;14.30;51.70;;;;;;5035511;28;20026;-72
2021/03/08 12:15:43;;;;;;;17.17;15.38;;;14.20;51.00;;;;;;5037083;28;20029;-74
2021/03/08 12:18:09;;;;;;;19.42;16.73;;;14.00;52.10;;;;;;5036613;28;20029;-72
2021/03/08 12:20:34;;;;;;;18.98;16.60;;;13.90;53.20;;;;;;5036487;28;20461;-72
2021/03/08 12:23:00;;;;;;;19.30;16.63;;;13.80;52.20;;;;;;5036697;28;20382;-72
2021/03/08 12:25:26;;;;;;;18.25;16.38;;;13.70;51.60;;;;;;5036558;28;20318;-74
2021/03/08 12:27:51;;;;;;;22.50;17.63;;;13.30;51.70;;;;;;5036762;28;20318;-73
2021/03/08 12:30:18;;;;;;;19.30;17.27;;;13.10;53.50;;;;;;5036390;28;20097;-72
2021/03/08 12:32:43;;;;;;;18.15;15.90;;;13.10;56.00;;;;;;5036366;28;20030;-73
2021/03/08 12:35:10;;;;;;;20.20;16.30;;;13.20;53.60;;;;;;5036433;28;20365;-72
2021/03/08 12:37:35;;;;;;;20.63;17.08;;;13.10;54.50;;;;;;5036760;28;20026;-72
2021/03/08 12:40:01;;;;;;;19.33;17.23;;;12.90;52.50;;;;;;5036649;28;20029;-72
2021/03/08 12:42:27;;;;;;;22.52;17.15;;;12.60;53.00;;;;;;5036405;28;20471;-72
2021/03/08 12:44:52;;;;;;;24.02;16.42;;;12.40;54.40;;;;;;5036433;28;20092;-74